sensor_id;sensor_type;location;lat;lon;timestamp;P1;durP1;ratioP1;P2;durP2;ratioP2
79644;SDS011;69117;47.148;18.954;2023-04-30T00:00:58;16.38;;;8.10;;
79644;SDS011;69117;47.148;18.954;2023-04-30T00:03:59;17.85;;;9.18;;
79644;SDS011;69117;47.148;18.954;2023-04-30T00:07:01;15.77;;;9.27;;
79644;SDS011;69117;47.148;18.954;2023-04-30T00:10:03;16.30;;;7.63;;
79644;SDS011;69117;47.148;18.954;2023-04-30T00:13:05;12.55;;;8.25;;
79644;SDS011;69117;47.148;18.954;2023-04-30T00:16:07;13.82;;;10.00;;
79644;SDS011;69117;47.148;18.954;2023-04-30T00:19:08;15.18;;;8.77;;
79644;SDS011;69117;47.148;18.954;2023-04-30T00:22:10;13.10;;;8.57;;
79644;SDS011;69117;47.148;18.954;2023-04-30T00:25:12;17.13;;;9.95;;
79644;SDS011;69117;47.148;18.954;2023-04-30T00:28:13;17.05;;;10.05;;
79644;SDS011;69117;47.148;18.954;2023-04-30T00:31:15;15.90;;;9.50;;
79644;SDS011;69117;47.148;18.954;2023-04-30T00:34:16;14.47;;;9.20;;
79644;SDS011;69117;47.148;18.954;2023-04-30T00:37:18;18.50;;;9.30;;
79644;SDS011;69117;47.148;18.954;2023-04-30T00:40:20;14.57;;;9.50;;
79644;SDS011;69117;47.148;18.954;2023-04-30T00:43:21;14.20;;;9.13;;
79644;SDS011;69117;47.148;18.954;2023-04-30T00:46:23;14.25;;;9.82;;
79644;SDS011;69117;47.148;18.954;2023-04-30T00:49:25;18.30;;;10.98;;
79644;SDS011;69117;47.148;18.954;2023-04-30T00:52:26;15.00;;;9.77;;
79644;SDS011;69117;47.148;18.954;2023-04-30T00:55:28;16.65;;;9.98;;
79644;SDS011;69117;47.148;18.954;2023-04-30T00:58:30;17.10;;;9.88;;
79644;SDS011;69117;47.148;18.954;2023-04-30T01:01:32;16.35;;;10.65;;
79644;SDS011;69117;47.148;18.954;2023-04-30T01:04:33;16.63;;;10.35;;
79644;SDS011;69117;47.148;18.954;2023-04-30T01:07:36;18.40;;;11.07;;
79644;SDS011;69117;47.148;18.954;2023-04-30T01:14:27;13.35;;;9.73;;
79644;SDS011;69117;47.148;18.954;2023-04-30T01:20:55;19.90;;;10.00;;
79644;SDS011;69117;47.148;18.954;2023-04-30T01:27:22;17.65;;;10.40;;
79644;SDS011;69117;47.148;18.954;2023-04-30T01:30:35;16.58;;;10.98;;
79644;SDS011;69117;47.148;18.954;2023-04-30T01:33:38;15.07;;;10.80;;
79644;SDS011;69117;47.148;18.954;2023-04-30T01:40:27;16.63;;;8.95;;
79644;SDS011;69117;47.148;18.954;2023-04-30T01:47:08;15.93;;;10.98;;
79644;SDS011;69117;47.148;18.954;2023-04-30T01:53:44;15.63;;;10.85;;
79644;SDS011;69117;47.148;18.954;2023-04-30T01:56:53;20.23;;;11.45;;
79644;SDS011;69117;47.148;18.954;2023-04-30T02:00:04;15.52;;;10.75;;
79644;SDS011;69117;47.148;18.954;2023-04-30T02:03:10;17.30;;;10.77;;
79644;SDS011;69117;47.148;18.954;2023-04-30T02:06:12;19.25;;;11.07;;
79644;SDS011;69117;47.148;18.954;2023-04-30T02:09:13;15.95;;;10.73;;
79644;SDS011;69117;47.148;18.954;2023-04-30T02:12:15;15.63;;;10.70;;
79644;SDS011;69117;47.148;18.954;2023-04-30T02:15:17;15.80;;;9.38;;
79644;SDS011;69117;47.148;18.954;2023-04-30T02:18:18;20.10;;;11.65;;
79644;SDS011;69117;47.148;18.954;2023-04-30T02:21:20;18.52;;;12.05;;
79644;SDS011;69117;47.148;18.954;2023-04-30T02:24:21;15.30;;;10.32;;
79644;SDS011;69117;47.148;18.954;2023-04-30T02:27:23;17.27;;;10.93;;
79644;SDS011;69117;47.148;18.954;2023-04-30T02:30:26;17.77;;;10.55;;
79644;SDS011;69117;47.148;18.954;2023-04-30T02:33:28;14.15;;;9.35;;
79644;SDS011;69117;47.148;18.954;2023-04-30T02:36:29;17.45;;;10.20;;
79644;SDS011;69117;47.148;18.954;2023-04-30T02:39:33;14.95;;;9.30;;
79644;SDS011;69117;47.148;18.954;2023-04-30T02:42:35;18.00;;;10.23;;
79644;SDS011;69117;47.148;18.954;2023-04-30T02:45:36;17.17;;;10.73;;
79644;SDS011;69117;47.148;18.954;2023-04-30T02:48:38;18.50;;;12.23;;
79644;SDS011;69117;47.148;18.954;2023-04-30T02:51:40;19.02;;;12.45;;
79644;SDS011;69117;47.148;18.954;2023-04-30T02:54:41;16.98;;;10.48;;
79644;SDS011;69117;47.148;18.954;2023-04-30T02:57:43;16.55;;;10.70;;
79644;SDS011;69117;47.148;18.954;2023-04-30T03:00:44;18.48;;;10.45;;
79644;SDS011;69117;47.148;18.954;2023-04-30T03:03:46;20.77;;;10.93;;
79644;SDS011;69117;47.148;18.954;2023-04-30T03:06:48;16.40;;;9.88;;
79644;SDS011;69117;47.148;18.954;2023-04-30T03:09:49;18.02;;;10.98;;
79644;SDS011;69117;47.148;18.954;2023-04-30T03:12:51;16.75;;;9.10;;
79644;SDS011;69117;47.148;18.954;2023-04-30T03:15:57;16.63;;;10.85;;
79644;SDS011;69117;47.148;18.954;2023-04-30T03:19:04;17.40;;;10.38;;
79644;SDS011;69117;47.148;18.954;2023-04-30T03:22:06;19.23;;;10.73;;
79644;SDS011;69117;47.148;18.954;2023-04-30T03:25:08;20.00;;;11.70;;
79644;SDS011;69117;47.148;18.954;2023-04-30T03:28:10;20.73;;;12.50;;
79644;SDS011;69117;47.148;18.954;2023-04-30T03:31:12;22.48;;;10.65;;
79644;SDS011;69117;47.148;18.954;2023-04-30T03:34:13;18.52;;;11.45;;
79644;SDS011;69117;47.148;18.954;2023-04-30T03:37:15;23.90;;;12.65;;
79644;SDS011;69117;47.148;18.954;2023-04-30T03:40:17;21.38;;;13.38;;
79644;SDS011;69117;47.148;18.954;2023-04-30T03:43:19;20.25;;;12.43;;
79644;SDS011;69117;47.148;18.954;2023-04-30T03:46:22;20.80;;;12.02;;
79644;SDS011;69117;47.148;18.954;2023-04-30T03:49:24;19.80;;;10.57;;
79644;SDS011;69117;47.148;18.954;2023-04-30T03:52:25;17.40;;;10.50;;
79644;SDS011;69117;47.148;18.954;2023-04-30T03:55:27;21.35;;;10.88;;
79644;SDS011;69117;47.148;18.954;2023-04-30T03:58:29;18.27;;;10.20;;
79644;SDS011;69117;47.148;18.954;2023-04-30T04:01:31;20.88;;;11.27;;
79644;SDS011;69117;47.148;18.954;2023-04-30T04:04:33;18.58;;;10.85;;
79644;SDS011;69117;47.148;18.954;2023-04-30T04:07:34;19.98;;;10.68;;
79644;SDS011;69117;47.148;18.954;2023-04-30T04:10:37;18.38;;;9.88;;
79644;SDS011;69117;47.148;18.954;2023-04-30T04:13:39;15.73;;;9.98;;
79644;SDS011;69117;47.148;18.954;2023-04-30T04:16:41;19.02;;;10.77;;
79644;SDS011;69117;47.148;18.954;2023-04-30T04:19:43;17.45;;;10.68;;
79644;SDS011;69117;47.148;18.954;2023-04-30T04:22:44;15.80;;;10.48;;
79644;SDS011;69117;47.148;18.954;2023-04-30T04:25:46;17.60;;;10.60;;
79644;SDS011;69117;47.148;18.954;2023-04-30T04:28:50;19.83;;;11.60;;
79644;SDS011;69117;47.148;18.954;2023-04-30T04:31:52;24.88;;;12.25;;
79644;SDS011;69117;47.148;18.954;2023-04-30T04:34:55;19.95;;;11.70;;
79644;SDS011;69117;47.148;18.954;2023-04-30T04:37:57;24.05;;;13.15;;
79644;SDS011;69117;47.148;18.954;2023-04-30T04:40:59;24.40;;;13.98;;
79644;SDS011;69117;47.148;18.954;2023-04-30T04:44:00;32.45;;;16.40;;
79644;SDS011;69117;47.148;18.954;2023-04-30T04:47:03;26.70;;;14.45;;
79644;SDS011;69117;47.148;18.954;2023-04-30T04:50:05;24.70;;;15.25;;
79644;SDS011;69117;47.148;18.954;2023-04-30T04:53:07;23.88;;;14.32;;
79644;SDS011;69117;47.148;18.954;2023-04-30T04:56:09;27.08;;;15.23;;
79644;SDS011;69117;47.148;18.954;2023-04-30T04:59:11;25.20;;;14.32;;
79644;SDS011;69117;47.148;18.954;2023-04-30T05:02:13;27.80;;;15.52;;
79644;SDS011;69117;47.148;18.954;2023-04-30T05:05:15;23.15;;;14.18;;
79644;SDS011;69117;47.148;18.954;2023-04-30T05:08:16;26.55;;;15.10;;
79644;SDS011;69117;47.148;18.954;2023-04-30T05:11:18;24.50;;;13.98;;
79644;SDS011;69117;47.148;18.954;2023-04-30T05:14:20;26.05;;;14.23;;
79644;SDS011;69117;47.148;18.954;2023-04-30T05:17:21;24.35;;;15.27;;
79644;SDS011;69117;47.148;18.954;2023-04-30T05:20:23;22.60;;;14.00;;
79644;SDS011;69117;47.148;18.954;2023-04-30T05:23:25;18.58;;;11.52;;
79644;SDS011;69117;47.148;18.954;2023-04-30T05:26:26;24.98;;;13.00;;
79644;SDS011;69117;47.148;18.954;2023-04-30T05:29:28;20.77;;;10.57;;
79644;SDS011;69117;47.148;18.954;2023-04-30T05:32:29;19.13;;;11.23;;
79644;SDS011;69117;47.148;18.954;2023-04-30T05:35:31;18.45;;;11.15;;
79644;SDS011;69117;47.148;18.954;2023-04-30T05:38:36;20.08;;;11.98;;
79644;SDS011;69117;47.148;18.954;2023-04-30T05:41:37;16.77;;;11.63;;
79644;SDS011;69117;47.148;18.954;2023-04-30T05:44:39;16.65;;;11.05;;
79644;SDS011;69117;47.148;18.954;2023-04-30T05:47:41;14.20;;;9.80;;
79644;SDS011;69117;47.148;18.954;2023-04-30T05:50:43;16.38;;;10.98;;
79644;SDS011;69117;47.148;18.954;2023-04-30T05:53:45;13.30;;;10.07;;
79644;SDS011;69117;47.148;18.954;2023-04-30T05:56:46;12.82;;;9.25;;
79644;SDS011;69117;47.148;18.954;2023-04-30T05:59:48;15.45;;;9.20;;
79644;SDS011;69117;47.148;18.954;2023-04-30T06:02:50;13.60;;;9.52;;
79644;SDS011;69117;47.148;18.954;2023-04-30T06:05:53;14.90;;;9.13;;
79644;SDS011;69117;47.148;18.954;2023-04-30T06:08:55;13.75;;;9.63;;
79644;SDS011;69117;47.148;18.954;2023-04-30T06:11:56;13.07;;;8.50;;
79644;SDS011;69117;47.148;18.954;2023-04-30T06:14:58;13.70;;;8.60;;
79644;SDS011;69117;47.148;18.954;2023-04-30T06:17:59;11.77;;;8.55;;
79644;SDS011;69117;47.148;18.954;2023-04-30T06:21:02;12.32;;;8.88;;
79644;SDS011;69117;47.148;18.954;2023-04-30T06:24:04;13.55;;;7.78;;
79644;SDS011;69117;47.148;18.954;2023-04-30T06:27:06;14.00;;;9.25;;
79644;SDS011;69117;47.148;18.954;2023-04-30T06:30:08;12.27;;;8.85;;
79644;SDS011;69117;47.148;18.954;2023-04-30T06:33:10;11.50;;;7.78;;
79644;SDS011;69117;47.148;18.954;2023-04-30T06:36:12;10.85;;;8.15;;
79644;SDS011;69117;47.148;18.954;2023-04-30T06:39:19;11.55;;;8.15;;
79644;SDS011;69117;47.148;18.954;2023-04-30T06:42:21;12.15;;;7.50;;
79644;SDS011;69117;47.148;18.954;2023-04-30T06:45:23;10.30;;;7.82;;
79644;SDS011;69117;47.148;18.954;2023-04-30T06:48:24;10.35;;;7.65;;
79644;SDS011;69117;47.148;18.954;2023-04-30T06:51:26;10.00;;;6.70;;
79644;SDS011;69117;47.148;18.954;2023-04-30T06:54:27;10.82;;;7.97;;
79644;SDS011;69117;47.148;18.954;2023-04-30T06:57:29;15.60;;;8.75;;
79644;SDS011;69117;47.148;18.954;2023-04-30T07:00:33;11.77;;;8.43;;
79644;SDS011;69117;47.148;18.954;2023-04-30T07:03:35;10.80;;;7.85;;
79644;SDS011;69117;47.148;18.954;2023-04-30T07:06:37;10.07;;;7.78;;
79644;SDS011;69117;47.148;18.954;2023-04-30T07:09:38;9.77;;;7.90;;
79644;SDS011;69117;47.148;18.954;2023-04-30T07:12:40;8.80;;;6.63;;
79644;SDS011;69117;47.148;18.954;2023-04-30T07:15:42;10.50;;;7.57;;
79644;SDS011;69117;47.148;18.954;2023-04-30T07:18:44;9.77;;;6.70;;
79644;SDS011;69117;47.148;18.954;2023-04-30T07:21:48;8.98;;;6.47;;
79644;SDS011;69117;47.148;18.954;2023-04-30T07:24:50;9.60;;;6.80;;
79644;SDS011;69117;47.148;18.954;2023-04-30T07:27:52;8.35;;;6.30;;
79644;SDS011;69117;47.148;18.954;2023-04-30T07:30:53;9.15;;;6.47;;
79644;SDS011;69117;47.148;18.954;2023-04-30T07:33:55;9.48;;;6.70;;
79644;SDS011;69117;47.148;18.954;2023-04-30T07:36:58;7.72;;;6.40;;
79644;SDS011;69117;47.148;18.954;2023-04-30T07:39:59;8.90;;;6.30;;
79644;SDS011;69117;47.148;18.954;2023-04-30T07:43:01;8.07;;;5.97;;
79644;SDS011;69117;47.148;18.954;2023-04-30T07:46:03;7.97;;;5.68;;
79644;SDS011;69117;47.148;18.954;2023-04-30T07:49:05;7.20;;;5.03;;
79644;SDS011;69117;47.148;18.954;2023-04-30T07:52:06;7.18;;;5.07;;
79644;SDS011;69117;47.148;18.954;2023-04-30T07:55:11;9.80;;;5.68;;
79644;SDS011;69117;47.148;18.954;2023-04-30T07:58:13;7.68;;;6.07;;
79644;SDS011;69117;47.148;18.954;2023-04-30T08:01:15;7.28;;;5.30;;
79644;SDS011;69117;47.148;18.954;2023-04-30T08:04:17;11.15;;;6.00;;
79644;SDS011;69117;47.148;18.954;2023-04-30T08:07:18;7.93;;;5.55;;
79644;SDS011;69117;47.148;18.954;2023-04-30T08:10:21;5.90;;;4.65;;
79644;SDS011;69117;47.148;18.954;2023-04-30T08:13:22;5.45;;;4.15;;
79644;SDS011;69117;47.148;18.954;2023-04-30T08:16:24;7.57;;;4.65;;
79644;SDS011;69117;47.148;18.954;2023-04-30T08:19:26;6.82;;;4.55;;
79644;SDS011;69117;47.148;18.954;2023-04-30T08:22:27;4.20;;;3.75;;
79644;SDS011;69117;47.148;18.954;2023-04-30T08:25:29;4.10;;;3.22;;
79644;SDS011;69117;47.148;18.954;2023-04-30T08:28:31;4.20;;;2.83;;
79644;SDS011;69117;47.148;18.954;2023-04-30T08:31:33;5.25;;;3.90;;
79644;SDS011;69117;47.148;18.954;2023-04-30T08:34:36;5.40;;;3.95;;
79644;SDS011;69117;47.148;18.954;2023-04-30T08:37:37;4.28;;;3.75;;
79644;SDS011;69117;47.148;18.954;2023-04-30T08:40:39;5.25;;;3.35;;
79644;SDS011;69117;47.148;18.954;2023-04-30T08:43:52;4.07;;;3.58;;
79644;SDS011;69117;47.148;18.954;2023-04-30T08:46:54;4.47;;;3.53;;
79644;SDS011;69117;47.148;18.954;2023-04-30T08:49:58;4.97;;;3.03;;
79644;SDS011;69117;47.148;18.954;2023-04-30T08:53:00;3.63;;;2.55;;
79644;SDS011;69117;47.148;18.954;2023-04-30T08:56:03;3.10;;;2.42;;
79644;SDS011;69117;47.148;18.954;2023-04-30T08:59:05;3.38;;;1.52;;
79644;SDS011;69117;47.148;18.954;2023-04-30T09:02:07;2.10;;;1.52;;
79644;SDS011;69117;47.148;18.954;2023-04-30T09:05:11;3.20;;;1.88;;
79644;SDS011;69117;47.148;18.954;2023-04-30T09:08:17;2.83;;;1.85;;
79644;SDS011;69117;47.148;18.954;2023-04-30T09:11:39;3.10;;;1.63;;
79644;SDS011;69117;47.148;18.954;2023-04-30T09:15:00;2.63;;;2.20;;
79644;SDS011;69117;47.148;18.954;2023-04-30T09:18:11;2.65;;;1.42;;
79644;SDS011;69117;47.148;18.954;2023-04-30T09:21:30;2.78;;;1.98;;
79644;SDS011;69117;47.148;18.954;2023-04-30T09:24:54;4.53;;;1.73;;
79644;SDS011;69117;47.148;18.954;2023-04-30T09:28:06;2.17;;;1.63;;
79644;SDS011;69117;47.148;18.954;2023-04-30T09:31:17;2.15;;;1.63;;
79644;SDS011;69117;47.148;18.954;2023-04-30T09:34:20;2.65;;;1.77;;
79644;SDS011;69117;47.148;18.954;2023-04-30T09:37:35;2.55;;;1.40;;
79644;SDS011;69117;47.148;18.954;2023-04-30T09:40:38;3.00;;;2.65;;
79644;SDS011;69117;47.148;18.954;2023-04-30T09:43:43;2.03;;;1.20;;
79644;SDS011;69117;47.148;18.954;2023-04-30T09:46:45;2.28;;;1.95;;
79644;SDS011;69117;47.148;18.954;2023-04-30T09:49:51;1.88;;;1.52;;
79644;SDS011;69117;47.148;18.954;2023-04-30T09:52:53;4.75;;;2.30;;
79644;SDS011;69117;47.148;18.954;2023-04-30T09:56:07;2.33;;;1.20;;
79644;SDS011;69117;47.148;18.954;2023-04-30T09:59:08;2.85;;;1.83;;
79644;SDS011;69117;47.148;18.954;2023-04-30T10:02:14;2.08;;;1.73;;
79644;SDS011;69117;47.148;18.954;2023-04-30T10:05:17;1.77;;;1.38;;
79644;SDS011;69117;47.148;18.954;2023-04-30T10:08:33;2.13;;;1.45;;
79644;SDS011;69117;47.148;18.954;2023-04-30T10:11:41;1.45;;;1.15;;
79644;SDS011;69117;47.148;18.954;2023-04-30T10:14:47;1.33;;;1.02;;
79644;SDS011;69117;47.148;18.954;2023-04-30T10:18:23;3.25;;;1.15;;
79644;SDS011;69117;47.148;18.954;2023-04-30T10:24:34;2.47;;;2.10;;
79644;SDS011;69117;47.148;18.954;2023-04-30T10:27:36;2.33;;;1.83;;
79644;SDS011;69117;47.148;18.954;2023-04-30T10:30:40;2.20;;;1.65;;
79644;SDS011;69117;47.148;18.954;2023-04-30T10:33:45;1.35;;;0.93;;
79644;SDS011;69117;47.148;18.954;2023-04-30T10:36:59;2.13;;;0.93;;
79644;SDS011;69117;47.148;18.954;2023-04-30T10:43:10;4.03;;;0.90;;
79644;SDS011;69117;47.148;18.954;2023-04-30T10:46:11;1.58;;;1.23;;
79644;SDS011;69117;47.148;18.954;2023-04-30T10:49:25;2.25;;;1.63;;
79644;SDS011;69117;47.148;18.954;2023-04-30T10:52:27;3.05;;;1.90;;
79644;SDS011;69117;47.148;18.954;2023-04-30T10:55:30;2.08;;;1.65;;
79644;SDS011;69117;47.148;18.954;2023-04-30T10:58:33;1.40;;;1.10;;
79644;SDS011;69117;47.148;18.954;2023-04-30T11:08:11;5.00;;;1.70;;
79644;SDS011;69117;47.148;18.954;2023-04-30T11:11:19;2.45;;;1.85;;
79644;SDS011;69117;47.148;18.954;2023-04-30T11:14:21;3.40;;;1.73;;
79644;SDS011;69117;47.148;18.954;2023-04-30T11:17:23;1.90;;;1.33;;
79644;SDS011;69117;47.148;18.954;2023-04-30T11:20:27;1.77;;;1.30;;
79644;SDS011;69117;47.148;18.954;2023-04-30T11:23:30;2.63;;;1.65;;
79644;SDS011;69117;47.148;18.954;2023-04-30T11:30:09;1.75;;;1.58;;
79644;SDS011;69117;47.148;18.954;2023-04-30T11:33:13;2.35;;;2.03;;
79644;SDS011;69117;47.148;18.954;2023-04-30T11:36:15;2.20;;;1.40;;
79644;SDS011;69117;47.148;18.954;2023-04-30T11:39:17;1.55;;;1.25;;
79644;SDS011;69117;47.148;18.954;2023-04-30T11:42:19;2.20;;;1.30;;
79644;SDS011;69117;47.148;18.954;2023-04-30T11:45:23;1.98;;;1.20;;
79644;SDS011;69117;47.148;18.954;2023-04-30T11:48:29;1.30;;;1.02;;
79644;SDS011;69117;47.148;18.954;2023-04-30T11:51:41;1.98;;;1.50;;
79644;SDS011;69117;47.148;18.954;2023-04-30T11:54:42;2.80;;;1.17;;
79644;SDS011;69117;47.148;18.954;2023-04-30T11:57:48;2.28;;;1.25;;
79644;SDS011;69117;47.148;18.954;2023-04-30T12:00:51;4.35;;;2.05;;
79644;SDS011;69117;47.148;18.954;2023-04-30T12:03:54;2.95;;;1.08;;
79644;SDS011;69117;47.148;18.954;2023-04-30T12:06:59;1.88;;;0.70;;
79644;SDS011;69117;47.148;18.954;2023-04-30T12:10:02;2.78;;;0.80;;
79644;SDS011;69117;47.148;18.954;2023-04-30T12:13:04;1.75;;;1.02;;
79644;SDS011;69117;47.148;18.954;2023-04-30T12:16:06;1.25;;;1.08;;
79644;SDS011;69117;47.148;18.954;2023-04-30T12:19:07;2.25;;;1.15;;
79644;SDS011;69117;47.148;18.954;2023-04-30T12:22:10;4.38;;;1.70;;
79644;SDS011;69117;47.148;18.954;2023-04-30T12:25:12;1.00;;;0.80;;
79644;SDS011;69117;47.148;18.954;2023-04-30T12:28:16;1.05;;;0.70;;
79644;SDS011;69117;47.148;18.954;2023-04-30T12:31:17;1.65;;;0.95;;
79644;SDS011;69117;47.148;18.954;2023-04-30T12:34:19;1.95;;;1.15;;
79644;SDS011;69117;47.148;18.954;2023-04-30T12:37:21;1.50;;;1.08;;
79644;SDS011;69117;47.148;18.954;2023-04-30T12:40:26;1.33;;;0.98;;
79644;SDS011;69117;47.148;18.954;2023-04-30T12:43:28;0.88;;;0.50;;
79644;SDS011;69117;47.148;18.954;2023-04-30T12:46:30;2.25;;;1.00;;
79644;SDS011;69117;47.148;18.954;2023-04-30T12:49:35;1.30;;;0.90;;
79644;SDS011;69117;47.148;18.954;2023-04-30T12:52:37;1.33;;;0.82;;
79644;SDS011;69117;47.148;18.954;2023-04-30T12:55:40;1.13;;;0.70;;
79644;SDS011;69117;47.148;18.954;2023-04-30T12:58:43;0.73;;;0.68;;
79644;SDS011;69117;47.148;18.954;2023-04-30T13:01:47;2.05;;;0.88;;
79644;SDS011;69117;47.148;18.954;2023-04-30T13:04:49;1.17;;;1.00;;
79644;SDS011;69117;47.148;18.954;2023-04-30T13:07:51;1.20;;;0.88;;
79644;SDS011;69117;47.148;18.954;2023-04-30T13:10:55;2.05;;;0.98;;
79644;SDS011;69117;47.148;18.954;2023-04-30T13:13:57;2.17;;;1.25;;
79644;SDS011;69117;47.148;18.954;2023-04-30T13:16:59;1.20;;;0.95;;
79644;SDS011;69117;47.148;18.954;2023-04-30T13:20:01;1.13;;;0.80;;
79644;SDS011;69117;47.148;18.954;2023-04-30T13:23:04;2.00;;;1.17;;
79644;SDS011;69117;47.148;18.954;2023-04-30T13:26:06;10.00;;;1.58;;
79644;SDS011;69117;47.148;18.954;2023-04-30T13:29:08;1.10;;;1.00;;
79644;SDS011;69117;47.148;18.954;2023-04-30T13:32:09;1.30;;;0.93;;
79644;SDS011;69117;47.148;18.954;2023-04-30T13:35:11;1.35;;;0.80;;
79644;SDS011;69117;47.148;18.954;2023-04-30T13:38:13;1.13;;;0.93;;
79644;SDS011;69117;47.148;18.954;2023-04-30T13:41:14;1.05;;;0.60;;
79644;SDS011;69117;47.148;18.954;2023-04-30T13:44:16;1.02;;;0.93;;
79644;SDS011;69117;47.148;18.954;2023-04-30T13:47:18;0.70;;;0.60;;
79644;SDS011;69117;47.148;18.954;2023-04-30T13:50:19;1.55;;;0.52;;
79644;SDS011;69117;47.148;18.954;2023-04-30T13:53:21;1.10;;;0.93;;
79644;SDS011;69117;47.148;18.954;2023-04-30T13:56:23;1.23;;;0.52;;
79644;SDS011;69117;47.148;18.954;2023-04-30T13:59:24;1.02;;;0.93;;
79644;SDS011;69117;47.148;18.954;2023-04-30T14:02:26;1.17;;;1.08;;
79644;SDS011;69117;47.148;18.954;2023-04-30T14:05:28;0.73;;;0.45;;
79644;SDS011;69117;47.148;18.954;2023-04-30T14:08:30;2.03;;;0.98;;
79644;SDS011;69117;47.148;18.954;2023-04-30T14:11:34;1.05;;;0.80;;
79644;SDS011;69117;47.148;18.954;2023-04-30T14:14:35;0.85;;;0.60;;
79644;SDS011;69117;47.148;18.954;2023-04-30T14:17:39;1.35;;;0.60;;
79644;SDS011;69117;47.148;18.954;2023-04-30T14:20:41;2.63;;;0.50;;
79644;SDS011;69117;47.148;18.954;2023-04-30T14:23:42;1.30;;;0.50;;
79644;SDS011;69117;47.148;18.954;2023-04-30T14:26:46;1.00;;;0.75;;
79644;SDS011;69117;47.148;18.954;2023-04-30T14:29:48;1.48;;;0.95;;
79644;SDS011;69117;47.148;18.954;2023-04-30T14:32:50;0.85;;;0.50;;
79644;SDS011;69117;47.148;18.954;2023-04-30T14:35:51;2.08;;;1.40;;
79644;SDS011;69117;47.148;18.954;2023-04-30T14:38:53;3.33;;;1.15;;
79644;SDS011;69117;47.148;18.954;2023-04-30T14:41:55;1.90;;;0.70;;
79644;SDS011;69117;47.148;18.954;2023-04-30T14:44:57;1.48;;;0.88;;
79644;SDS011;69117;47.148;18.954;2023-04-30T14:47:58;0.75;;;0.70;;
79644;SDS011;69117;47.148;18.954;2023-04-30T14:51:00;0.82;;;0.82;;
79644;SDS011;69117;47.148;18.954;2023-04-30T14:54:02;0.95;;;0.70;;
79644;SDS011;69117;47.148;18.954;2023-04-30T14:57:04;8.40;;;1.10;;
79644;SDS011;69117;47.148;18.954;2023-04-30T15:00:05;0.95;;;0.40;;
79644;SDS011;69117;47.148;18.954;2023-04-30T15:03:08;1.45;;;0.80;;
79644;SDS011;69117;47.148;18.954;2023-04-30T15:06:09;1.13;;;0.50;;
79644;SDS011;69117;47.148;18.954;2023-04-30T15:09:11;1.80;;;0.90;;
79644;SDS011;69117;47.148;18.954;2023-04-30T15:12:13;0.75;;;0.50;;
79644;SDS011;69117;47.148;18.954;2023-04-30T15:15:15;2.35;;;1.27;;
79644;SDS011;69117;47.148;18.954;2023-04-30T15:18:19;0.85;;;0.80;;
79644;SDS011;69117;47.148;18.954;2023-04-30T15:21:20;1.05;;;0.82;;
79644;SDS011;69117;47.148;18.954;2023-04-30T15:24:22;1.70;;;1.00;;
79644;SDS011;69117;47.148;18.954;2023-04-30T15:27:24;2.65;;;0.60;;
79644;SDS011;69117;47.148;18.954;2023-04-30T15:30:28;1.20;;;0.80;;
79644;SDS011;69117;47.148;18.954;2023-04-30T15:33:29;0.50;;;0.47;;
79644;SDS011;69117;47.148;18.954;2023-04-30T15:36:31;1.63;;;1.02;;
79644;SDS011;69117;47.148;18.954;2023-04-30T15:39:33;1.42;;;0.60;;
79644;SDS011;69117;47.148;18.954;2023-04-30T15:42:35;1.20;;;0.77;;
79644;SDS011;69117;47.148;18.954;2023-04-30T15:45:38;1.10;;;0.65;;
79644;SDS011;69117;47.148;18.954;2023-04-30T15:48:40;1.15;;;1.02;;
79644;SDS011;69117;47.148;18.954;2023-04-30T15:51:41;1.30;;;1.10;;
79644;SDS011;69117;47.148;18.954;2023-04-30T15:54:43;0.95;;;0.63;;
79644;SDS011;69117;47.148;18.954;2023-04-30T15:57:45;0.88;;;0.63;;
79644;SDS011;69117;47.148;18.954;2023-04-30T16:00:46;2.60;;;0.80;;
79644;SDS011;69117;47.148;18.954;2023-04-30T16:03:48;1.73;;;1.00;;
79644;SDS011;69117;47.148;18.954;2023-04-30T16:06:50;1.40;;;0.88;;
79644;SDS011;69117;47.148;18.954;2023-04-30T16:09:52;2.15;;;1.02;;
79644;SDS011;69117;47.148;18.954;2023-04-30T16:12:54;1.00;;;0.65;;
79644;SDS011;69117;47.148;18.954;2023-04-30T16:15:56;1.25;;;0.95;;
79644;SDS011;69117;47.148;18.954;2023-04-30T16:18:58;4.32;;;1.50;;
79644;SDS011;69117;47.148;18.954;2023-04-30T16:21:59;2.03;;;0.90;;
79644;SDS011;69117;47.148;18.954;2023-04-30T16:25:01;1.48;;;0.80;;
79644;SDS011;69117;47.148;18.954;2023-04-30T16:28:03;4.25;;;1.38;;
79644;SDS011;69117;47.148;18.954;2023-04-30T16:31:05;2.55;;;1.20;;
79644;SDS011;69117;47.148;18.954;2023-04-30T16:34:07;2.08;;;1.20;;
79644;SDS011;69117;47.148;18.954;2023-04-30T16:37:12;2.78;;;1.60;;
79644;SDS011;69117;47.148;18.954;2023-04-30T16:40:14;1.45;;;1.05;;
79644;SDS011;69117;47.148;18.954;2023-04-30T16:43:15;2.90;;;1.38;;
79644;SDS011;69117;47.148;18.954;2023-04-30T16:46:17;3.10;;;1.75;;
79644;SDS011;69117;47.148;18.954;2023-04-30T16:49:18;1.88;;;1.40;;
79644;SDS011;69117;47.148;18.954;2023-04-30T16:52:21;2.03;;;1.42;;
79644;SDS011;69117;47.148;18.954;2023-04-30T16:55:24;3.97;;;1.92;;
79644;SDS011;69117;47.148;18.954;2023-04-30T16:58:26;7.93;;;3.45;;
79644;SDS011;69117;47.148;18.954;2023-04-30T17:01:28;5.18;;;2.67;;
79644;SDS011;69117;47.148;18.954;2023-04-30T17:04:29;4.78;;;2.05;;
79644;SDS011;69117;47.148;18.954;2023-04-30T17:07:31;6.80;;;3.95;;
79644;SDS011;69117;47.148;18.954;2023-04-30T17:10:33;2.72;;;2.22;;
79644;SDS011;69117;47.148;18.954;2023-04-30T17:13:34;4.93;;;2.63;;
79644;SDS011;69117;47.148;18.954;2023-04-30T17:16:37;4.45;;;2.95;;
79644;SDS011;69117;47.148;18.954;2023-04-30T17:19:39;3.85;;;2.28;;
79644;SDS011;69117;47.148;18.954;2023-04-30T17:22:43;2.90;;;1.70;;
79644;SDS011;69117;47.148;18.954;2023-04-30T17:25:46;3.33;;;1.75;;
79644;SDS011;69117;47.148;18.954;2023-04-30T17:28:48;1.70;;;1.20;;
79644;SDS011;69117;47.148;18.954;2023-04-30T17:31:49;2.28;;;1.73;;
79644;SDS011;69117;47.148;18.954;2023-04-30T17:34:54;2.40;;;1.60;;
79644;SDS011;69117;47.148;18.954;2023-04-30T17:37:55;2.38;;;1.92;;
79644;SDS011;69117;47.148;18.954;2023-04-30T17:40:59;4.32;;;2.13;;
79644;SDS011;69117;47.148;18.954;2023-04-30T17:44:00;2.45;;;2.17;;
79644;SDS011;69117;47.148;18.954;2023-04-30T17:47:02;3.47;;;2.00;;
79644;SDS011;69117;47.148;18.954;2023-04-30T17:50:05;2.20;;;1.83;;
79644;SDS011;69117;47.148;18.954;2023-04-30T17:53:09;2.75;;;2.50;;
79644;SDS011;69117;47.148;18.954;2023-04-30T17:56:11;2.70;;;1.85;;
79644;SDS011;69117;47.148;18.954;2023-04-30T17:59:12;4.03;;;1.98;;
79644;SDS011;69117;47.148;18.954;2023-04-30T18:02:14;4.38;;;2.70;;
79644;SDS011;69117;47.148;18.954;2023-04-30T18:05:16;4.32;;;3.00;;
79644;SDS011;69117;47.148;18.954;2023-04-30T18:08:18;5.07;;;3.22;;
79644;SDS011;69117;47.148;18.954;2023-04-30T18:11:19;3.08;;;2.50;;
79644;SDS011;69117;47.148;18.954;2023-04-30T18:14:21;4.78;;;2.75;;
79644;SDS011;69117;47.148;18.954;2023-04-30T18:17:22;4.25;;;2.78;;
79644;SDS011;69117;47.148;18.954;2023-04-30T18:20:24;4.90;;;3.00;;
79644;SDS011;69117;47.148;18.954;2023-04-30T18:23:26;4.00;;;3.40;;
79644;SDS011;69117;47.148;18.954;2023-04-30T18:26:28;7.07;;;4.53;;
79644;SDS011;69117;47.148;18.954;2023-04-30T18:29:30;6.60;;;4.70;;
79644;SDS011;69117;47.148;18.954;2023-04-30T18:32:31;6.28;;;4.70;;